sensor_id;sensor_type;location;lat;lon;timestamp;pressure;altitude;pressure_sealevel;temperature;humidity
63088;BME280;49173;43.164;27.786;2023-05-07T00:01:46;100698.34;;;13.78;56.46
63088;BME280;49173;43.164;27.786;2023-05-07T00:04:12;100713.88;;;13.74;56.49
63088;BME280;49173;43.164;27.786;2023-05-07T00:06:39;100701.25;;;13.75;56.45
63088;BME280;49173;43.164;27.786;2023-05-07T00:09:06;100704.13;;;13.72;55.88
63088;BME280;49173;43.164;27.786;2023-05-07T00:11:33;100707.19;;;13.66;56.66
63088;BME280;49173;43.164;27.786;2023-05-07T00:13:59;100713.06;;;13.58;56.98
63088;BME280;49173;43.164;27.786;2023-05-07T00:16:25;100711.72;;;13.51;56.42
63088;BME280;49173;43.164;27.786;2023-05-07T00:18:51;100710.84;;;13.51;56.70
63088;BME280;49173;43.164;27.786;2023-05-07T00:21:16;100710.69;;;13.54;56.65
63088;BME280;49173;43.164;27.786;2023-05-07T00:23:42;100716.94;;;13.54;56.98
63088;BME280;49173;43.164;27.786;2023-05-07T00:26:08;100716.44;;;13.48;56.33
63088;BME280;49173;43.164;27.786;2023-05-07T00:28:33;100716.06;;;13.54;57.06
63088;BME280;49173;43.164;27.786;2023-05-07T00:31:00;100712.03;;;13.61;57.56
63088;BME280;49173;43.164;27.786;2023-05-07T00:33:25;100722.91;;;13.59;57.30
63088;BME280;49173;43.164;27.786;2023-05-07T00:35:52;100718.38;;;13.60;57.61
63088;BME280;49173;43.164;27.786;2023-05-07T00:38:19;100715.50;;;13.63;56.94
63088;BME280;49173;43.164;27.786;2023-05-07T00:40:45;100710.88;;;13.65;57.02
63088;BME280;49173;43.164;27.786;2023-05-07T00:43:12;100722.81;;;13.61;57.84
63088;BME280;49173;43.164;27.786;2023-05-07T00:45:38;100724.94;;;13.56;58.52
63088;BME280;49173;43.164;27.786;2023-05-07T00:48:04;100733.41;;;13.50;58.68
63088;BME280;49173;43.164;27.786;2023-05-07T00:50:31;100724.72;;;13.44;58.37
63088;BME280;49173;43.164;27.786;2023-05-07T00:52:58;100734.72;;;13.42;58.48
63088;BME280;49173;43.164;27.786;2023-05-07T00:55:25;100730.31;;;13.41;59.08
63088;BME280;49173;43.164;27.786;2023-05-07T00:57:51;100729.91;;;13.33;59.64
63088;BME280;49173;43.164;27.786;2023-05-07T01:00:18;100739.03;;;13.31;59.54
63088;BME280;49173;43.164;27.786;2023-05-07T01:02:44;100736.03;;;13.21;58.99
63088;BME280;49173;43.164;27.786;2023-05-07T01:05:15;100733.94;;;13.26;59.75
63088;BME280;49173;43.164;27.786;2023-05-07T01:07:43;100738.25;;;13.29;60.48
63088;BME280;49173;43.164;27.786;2023-05-07T01:10:10;100737.41;;;13.28;60.61
63088;BME280;49173;43.164;27.786;2023-05-07T01:12:37;100741.91;;;13.28;61.10
63088;BME280;49173;43.164;27.786;2023-05-07T01:15:05;100738.53;;;13.24;61.02
63088;BME280;49173;43.164;27.786;2023-05-07T01:17:41;100741.31;;;13.23;60.68
63088;BME280;49173;43.164;27.786;2023-05-07T01:20:07;100733.50;;;13.18;61.68
63088;BME280;49173;43.164;27.786;2023-05-07T01:22:36;100732.03;;;13.12;61.46
63088;BME280;49173;43.164;27.786;2023-05-07T01:25:03;100726.91;;;13.08;61.53
63088;BME280;49173;43.164;27.786;2023-05-07T01:27:30;100719.97;;;13.04;60.94
63088;BME280;49173;43.164;27.786;2023-05-07T01:29:56;100730.25;;;12.97;60.75
63088;BME280;49173;43.164;27.786;2023-05-07T01:32:43;100725.28;;;13.05;61.06
63088;BME280;49173;43.164;27.786;2023-05-07T01:35:12;100725.38;;;13.04;61.55
63088;BME280;49173;43.164;27.786;2023-05-07T01:37:39;100731.13;;;12.98;60.75
63088;BME280;49173;43.164;27.786;2023-05-07T01:40:07;100738.25;;;12.99;60.95
63088;BME280;49173;43.164;27.786;2023-05-07T01:42:33;100732.50;;;13.05;60.90
63088;BME280;49173;43.164;27.786;2023-05-07T01:44:59;100727.09;;;13.05;61.10
63088;BME280;49173;43.164;27.786;2023-05-07T01:47:25;100732.66;;;13.02;61.08
63088;BME280;49173;43.164;27.786;2023-05-07T01:49:52;100721.88;;;13.02;61.13
63088;BME280;49173;43.164;27.786;2023-05-07T01:52:18;100723.19;;;12.95;61.13
63088;BME280;49173;43.164;27.786;2023-05-07T01:54:44;100719.72;;;12.92;61.70
63088;BME280;49173;43.164;27.786;2023-05-07T01:57:11;100720.25;;;12.99;61.95
63088;BME280;49173;43.164;27.786;2023-05-07T01:59:36;100720.25;;;12.99;61.93
63088;BME280;49173;43.164;27.786;2023-05-07T02:02:03;100719.28;;;13.00;61.90
63088;BME280;49173;43.164;27.786;2023-05-07T02:04:28;100712.81;;;13.03;61.49
63088;BME280;49173;43.164;27.786;2023-05-07T02:06:54;100706.97;;;13.10;61.45
63088;BME280;49173;43.164;27.786;2023-05-07T02:09:21;100717.50;;;13.15;61.20
63088;BME280;49173;43.164;27.786;2023-05-07T02:11:48;100707.47;;;13.17;60.91
63088;BME280;49173;43.164;27.786;2023-05-07T02:14:14;100708.34;;;13.17;60.97
63088;BME280;49173;43.164;27.786;2023-05-07T02:16:41;100710.19;;;13.17;61.03
63088;BME280;49173;43.164;27.786;2023-05-07T02:19:07;100708.34;;;13.17;61.17
63088;BME280;49173;43.164;27.786;2023-05-07T02:21:33;100712.88;;;13.17;61.35
63088;BME280;49173;43.164;27.786;2023-05-07T02:23:59;100714.69;;;13.16;61.27
63088;BME280;49173;43.164;27.786;2023-05-07T02:26:25;100705.75;;;13.16;61.44
63088;BME280;49173;43.164;27.786;2023-05-07T02:28:51;100701.41;;;13.13;61.63
63088;BME280;49173;43.164;27.786;2023-05-07T02:31:17;100699.59;;;13.14;61.62
63088;BME280;49173;43.164;27.786;2023-05-07T02:33:43;100701.59;;;13.10;62.19
63088;BME280;49173;43.164;27.786;2023-05-07T02:36:10;100709.38;;;13.01;62.33
63088;BME280;49173;43.164;27.786;2023-05-07T02:38:36;100705.41;;;12.92;62.75
63088;BME280;49173;43.164;27.786;2023-05-07T02:41:02;100706.53;;;12.88;62.72
63088;BME280;49173;43.164;27.786;2023-05-07T02:43:28;100708.19;;;12.90;63.06
63088;BME280;49173;43.164;27.786;2023-05-07T02:46:07;100712.78;;;12.88;63.39
63088;BME280;49173;43.164;27.786;2023-05-07T02:48:34;100709.31;;;12.86;63.45
63088;BME280;49173;43.164;27.786;2023-05-07T02:51:00;100719.47;;;12.81;63.71
63088;BME280;49173;43.164;27.786;2023-05-07T02:53:26;100714.38;;;12.77;64.24
63088;BME280;49173;43.164;27.786;2023-05-07T02:55:59;100716.47;;;12.72;64.81
63088;BME280;49173;43.164;27.786;2023-05-07T02:58:25;100711.28;;;12.69;64.13
63088;BME280;49173;43.164;27.786;2023-05-07T03:00:51;100719.63;;;12.64;63.83
63088;BME280;49173;43.164;27.786;2023-05-07T03:03:17;100724.28;;;12.60;63.59
63088;BME280;49173;43.164;27.786;2023-05-07T03:05:43;100720.91;;;12.57;63.48
63088;BME280;49173;43.164;27.786;2023-05-07T03:08:09;100723.44;;;12.60;63.72
63088;BME280;49173;43.164;27.786;2023-05-07T03:10:36;100713.63;;;12.59;64.06
63088;BME280;49173;43.164;27.786;2023-05-07T03:13:04;100715.53;;;12.57;64.00
63088;BME280;49173;43.164;27.786;2023-05-07T03:15:30;100710.25;;;12.55;64.05
63088;BME280;49173;43.164;27.786;2023-05-07T03:17:56;100707.63;;;12.54;63.71
63088;BME280;49173;43.164;27.786;2023-05-07T03:20:22;100715.78;;;12.52;63.52
63088;BME280;49173;43.164;27.786;2023-05-07T03:22:48;100724.84;;;12.51;63.28
63088;BME280;49173;43.164;27.786;2023-05-07T03:25:14;100723.09;;;12.50;62.56
63088;BME280;49173;43.164;27.786;2023-05-07T03:27:40;100728.81;;;12.60;62.95
63088;BME280;49173;43.164;27.786;2023-05-07T03:30:07;100725.88;;;12.64;62.17
63088;BME280;49173;43.164;27.786;2023-05-07T03:32:34;100730.34;;;12.80;63.43
63088;BME280;49173;43.164;27.786;2023-05-07T03:35:03;100724.06;;;12.95;63.11
63088;BME280;49173;43.164;27.786;2023-05-07T03:37:29;100726.75;;;13.11;63.64
63088;BME280;49173;43.164;27.786;2023-05-07T03:39:54;100723.16;;;13.26;62.36
63088;BME280;49173;43.164;27.786;2023-05-07T03:42:20;100727.97;;;13.35;60.46
63088;BME280;49173;43.164;27.786;2023-05-07T03:44:46;100723.75;;;13.45;61.82
63088;BME280;49173;43.164;27.786;2023-05-07T03:47:12;100728.00;;;13.50;61.44
63088;BME280;49173;43.164;27.786;2023-05-07T03:49:39;100734.97;;;13.54;61.97
63088;BME280;49173;43.164;27.786;2023-05-07T03:52:05;100734.16;;;13.52;58.97
63088;BME280;49173;43.164;27.786;2023-05-07T03:54:32;100741.13;;;13.56;59.30
63088;BME280;49173;43.164;27.786;2023-05-07T03:56:58;100748.06;;;13.74;60.07
63088;BME280;49173;43.164;27.786;2023-05-07T03:59:23;100751.81;;;13.86;60.33
63088;BME280;49173;43.164;27.786;2023-05-07T04:01:49;100760.41;;;13.92;61.52
63088;BME280;49173;43.164;27.786;2023-05-07T04:04:15;100749.88;;;14.02;62.29
63088;BME280;49173;43.164;27.786;2023-05-07T04:06:41;100752.31;;;14.21;61.39
63088;BME280;49173;43.164;27.786;2023-05-07T04:09:07;100749.41;;;14.52;60.54
63088;BME280;49173;43.164;27.786;2023-05-07T04:11:34;100750.19;;;14.81;58.86
63088;BME280;49173;43.164;27.786;2023-05-07T04:14:00;100753.75;;;15.09;57.40
63088;BME280;49173;43.164;27.786;2023-05-07T04:16:26;100751.88;;;15.36;56.08
63088;BME280;49173;43.164;27.786;2023-05-07T04:18:52;100761.28;;;15.56;57.62
63088;BME280;49173;43.164;27.786;2023-05-07T04:21:19;100751.94;;;15.75;57.67
63088;BME280;49173;43.164;27.786;2023-05-07T04:23:46;100755.94;;;15.95;57.95
63088;BME280;49173;43.164;27.786;2023-05-07T04:26:12;100758.41;;;16.10;56.02
63088;BME280;49173;43.164;27.786;2023-05-07T04:28:38;100759.69;;;16.30;55.96
63088;BME280;49173;43.164;27.786;2023-05-07T04:31:06;100752.28;;;16.45;56.16
63088;BME280;49173;43.164;27.786;2023-05-07T04:33:32;100765.44;;;16.62;55.96
63088;BME280;49173;43.164;27.786;2023-05-07T04:36:02;100754.13;;;16.81;56.05
63088;BME280;49173;43.164;27.786;2023-05-07T04:38:32;100759.06;;;17.00;56.22
63088;BME280;49173;43.164;27.786;2023-05-07T04:41:03;100762.19;;;17.18;56.00
63088;BME280;49173;43.164;27.786;2023-05-07T04:43:29;100763.63;;;17.35;54.20
63088;BME280;49173;43.164;27.786;2023-05-07T04:45:55;100770.59;;;17.50;52.38
63088;BME280;49173;43.164;27.786;2023-05-07T04:48:21;100763.53;;;17.71;52.60
63088;BME280;49173;43.164;27.786;2023-05-07T04:50:48;100768.72;;;17.86;51.08
63088;BME280;49173;43.164;27.786;2023-05-07T04:53:15;100767.50;;;18.01;51.24
63088;BME280;49173;43.164;27.786;2023-05-07T04:55:41;100780.50;;;18.20;50.27
63088;BME280;49173;43.164;27.786;2023-05-07T04:58:07;100761.09;;;18.35;50.07
63088;BME280;49173;43.164;27.786;2023-05-07T05:00:33;100765.78;;;18.45;48.60
63088;BME280;49173;43.164;27.786;2023-05-07T05:02:59;100759.34;;;18.57;49.90
63088;BME280;49173;43.164;27.786;2023-05-07T05:05:25;100762.69;;;18.72;49.62
63088;BME280;49173;43.164;27.786;2023-05-07T05:07:51;100766.38;;;18.82;49.49
63088;BME280;49173;43.164;27.786;2023-05-07T05:10:17;100765.19;;;18.96;48.51
63088;BME280;49173;43.164;27.786;2023-05-07T05:12:43;100770.63;;;19.07;48.80
63088;BME280;49173;43.164;27.786;2023-05-07T05:15:11;100769.09;;;19.14;48.39
63088;BME280;49173;43.164;27.786;2023-05-07T05:17:38;100770.06;;;19.24;47.40
63088;BME280;49173;43.164;27.786;2023-05-07T05:20:04;100763.75;;;19.24;46.42
63088;BME280;49173;43.164;27.786;2023-05-07T05:22:32;100773.88;;;19.33;46.99
63088;BME280;49173;43.164;27.786;2023-05-07T05:24:58;100764.75;;;19.43;45.95
63088;BME280;49173;43.164;27.786;2023-05-07T05:27:24;100770.72;;;19.37;45.97
63088;BME280;49173;43.164;27.786;2023-05-07T05:29:50;100775.13;;;19.49;46.94
63088;BME280;49173;43.164;27.786;2023-05-07T05:32:15;100766.75;;;19.41;45.64
63088;BME280;49173;43.164;27.786;2023-05-07T05:34:41;100776.66;;;19.42;44.87
63088;BME280;49173;43.164;27.786;2023-05-07T05:37:07;100765.03;;;19.40;45.54
63088;BME280;49173;43.164;27.786;2023-05-07T05:39:33;100772.69;;;19.46;45.08
63088;BME280;49173;43.164;27.786;2023-05-07T05:41:59;100774.28;;;19.49;44.99
63088;BME280;49173;43.164;27.786;2023-05-07T05:44:25;100771.16;;;19.54;45.82
63088;BME280;49173;43.164;27.786;2023-05-07T05:46:51;100771.25;;;19.63;45.13
63088;BME280;49173;43.164;27.786;2023-05-07T05:49:16;100783.63;;;19.67;45.32
63088;BME280;49173;43.164;27.786;2023-05-07T05:51:43;100776.84;;;19.83;45.54
63088;BME280;49173;43.164;27.786;2023-05-07T05:54:09;100784.28;;;19.81;44.31
63088;BME280;49173;43.164;27.786;2023-05-07T05:56:36;100789.75;;;19.81;45.12
63088;BME280;49173;43.164;27.786;2023-05-07T05:59:01;100777.94;;;19.80;43.74
63088;BME280;49173;43.164;27.786;2023-05-07T06:01:27;100788.31;;;19.86;43.50
63088;BME280;49173;43.164;27.786;2023-05-07T06:03:53;100780.16;;;19.86;44.84
63088;BME280;49173;43.164;27.786;2023-05-07T06:06:19;100788.44;;;20.06;45.68
63088;BME280;49173;43.164;27.786;2023-05-07T06:08:44;100782.38;;;20.23;45.03
63088;BME280;49173;43.164;27.786;2023-05-07T06:11:10;100787.56;;;20.36;44.27
63088;BME280;49173;43.164;27.786;2023-05-07T06:13:36;100779.50;;;20.45;43.25
63088;BME280;49173;43.164;27.786;2023-05-07T06:16:02;100785.25;;;20.52;43.67
63088;BME280;49173;43.164;27.786;2023-05-07T06:18:27;100783.38;;;20.52;42.03
63088;BME280;49173;43.164;27.786;2023-05-07T06:20:53;100787.53;;;20.56;42.01
63088;BME280;49173;43.164;27.786;2023-05-07T06:23:19;100789.56;;;20.54;41.87
63088;BME280;49173;43.164;27.786;2023-05-07T06:25:49;100791.03;;;20.59;42.73
63088;BME280;49173;43.164;27.786;2023-05-07T06:28:16;100789.19;;;20.78;41.92
63088;BME280;49173;43.164;27.786;2023-05-07T06:30:41;100785.59;;;20.78;39.68
63088;BME280;49173;43.164;27.786;2023-05-07T06:33:07;100791.25;;;20.86;42.22
63088;BME280;49173;43.164;27.786;2023-05-07T06:35:33;100789.25;;;20.98;43.38
63088;BME280;49173;43.164;27.786;2023-05-07T06:37:59;100794.59;;;21.09;42.13
63088;BME280;49173;43.164;27.786;2023-05-07T06:40:26;100781.66;;;21.01;39.83
63088;BME280;49173;43.164;27.786;2023-05-07T06:42:51;100777.59;;;20.96;40.60
63088;BME280;49173;43.164;27.786;2023-05-07T06:45:17;100780.03;;;20.99;40.72
63088;BME280;49173;43.164;27.786;2023-05-07T06:47:43;100784.78;;;21.06;40.70
63088;BME280;49173;43.164;27.786;2023-05-07T06:50:09;100783.50;;;21.20;40.07
63088;BME280;49173;43.164;27.786;2023-05-07T06:52:35;100789.56;;;21.24;39.88
63088;BME280;49173;43.164;27.786;2023-05-07T06:55:01;100781.81;;;21.09;39.73
63088;BME280;49173;43.164;27.786;2023-05-07T06:57:27;100781.66;;;21.11;40.71
63088;BME280;49173;43.164;27.786;2023-05-07T06:59:52;100780.63;;;21.12;40.11
63088;BME280;49173;43.164;27.786;2023-05-07T07:02:18;100787.00;;;21.32;40.07
63088;BME280;49173;43.164;27.786;2023-05-07T07:04:44;100788.72;;;21.33;38.96
63088;BME280;49173;43.164;27.786;2023-05-07T07:07:10;100788.44;;;21.46;39.54
63088;BME280;49173;43.164;27.786;2023-05-07T07:09:36;100789.28;;;21.56;40.78
63088;BME280;49173;43.164;27.786;2023-05-07T07:12:02;100785.13;;;21.81;40.08
63088;BME280;49173;43.164;27.786;2023-05-07T07:14:30;100792.41;;;21.90;38.53
63088;BME280;49173;43.164;27.786;2023-05-07T07:16:56;100793.97;;;22.02;39.41
63088;BME280;49173;43.164;27.786;2023-05-07T07:19:22;100788.94;;;22.07;38.16
63088;BME280;49173;43.164;27.786;2023-05-07T07:21:47;100791.84;;;21.96;36.92
63088;BME280;49173;43.164;27.786;2023-05-07T07:24:14;100797.16;;;21.98;38.10
63088;BME280;49173;43.164;27.786;2023-05-07T07:26:44;100801.78;;;21.87;36.55
63088;BME280;49173;43.164;27.786;2023-05-07T07:29:10;100794.31;;;21.80;37.72
63088;BME280;49173;43.164;27.786;2023-05-07T07:31:36;100793.47;;;21.79;37.96
63088;BME280;49173;43.164;27.786;2023-05-07T07:34:02;100789.13;;;21.77;37.66
63088;BME280;49173;43.164;27.786;2023-05-07T07:36:28;100804.69;;;21.86;39.26
63088;BME280;49173;43.164;27.786;2023-05-07T07:38:55;100795.78;;;21.64;37.41
63088;BME280;49173;43.164;27.786;2023-05-07T07:41:21;100795.91;;;21.73;38.90
63088;BME280;49173;43.164;27.786;2023-05-07T07:43:47;100799.66;;;21.72;37.18
63088;BME280;49173;43.164;27.786;2023-05-07T07:46:13;100795.75;;;21.84;37.71
63088;BME280;49173;43.164;27.786;2023-05-07T07:48:38;100802.94;;;21.85;37.11
63088;BME280;49173;43.164;27.786;2023-05-07T07:51:04;100796.19;;;21.70;37.31
63088;BME280;49173;43.164;27.786;2023-05-07T07:53:30;100798.22;;;21.67;37.38
63088;BME280;49173;43.164;27.786;2023-05-07T07:55:56;100803.81;;;21.76;38.72
63088;BME280;49173;43.164;27.786;2023-05-07T07:58:21;100796.03;;;21.81;38.08
63088;BME280;49173;43.164;27.786;2023-05-07T08:00:48;100808.41;;;21.85;37.68
63088;BME280;49173;43.164;27.786;2023-05-07T08:03:14;100807.41;;;21.76;37.42
63088;BME280;49173;43.164;27.786;2023-05-07T08:05:42;100807.41;;;21.66;38.00
63088;BME280;49173;43.164;27.786;2023-05-07T08:08:08;100803.81;;;21.66;39.04
63088;BME280;49173;43.164;27.786;2023-05-07T08:10:35;100805.84;;;21.64;37.88
63088;BME280;49173;43.164;27.786;2023-05-07T08:13:03;100807.41;;;21.66;38.96
63088;BME280;49173;43.164;27.786;2023-05-07T08:15:30;100794.03;;;21.73;39.75
63088;BME280;49173;43.164;27.786;2023-05-07T08:17:56;100805.53;;;21.77;37.62
63088;BME280;49173;43.164;27.786;2023-05-07T08:20:28;100795.47;;;21.67;38.10
63088;BME280;49173;43.164;27.786;2023-05-07T08:22:55;100792.44;;;21.71;38.32
63088;BME280;49173;43.164;27.786;2023-05-07T08:25:20;100786.72;;;21.64;34.59
63088;BME280;49173;43.164;27.786;2023-05-07T08:27:46;100792.91;;;21.66;37.99
63088;BME280;49173;43.164;27.786;2023-05-07T08:30:12;100794.63;;;21.57;38.51
63088;BME280;49173;43.164;27.786;2023-05-07T08:32:39;100794.06;;;21.54;37.88
63088;BME280;49173;43.164;27.786;2023-05-07T08:35:05;100794.03;;;21.63;39.02
63088;BME280;49173;43.164;27.786;2023-05-07T08:37:31;100796.19;;;21.70;36.90
63088;BME280;49173;43.164;27.786;2023-05-07T08:39:56;100794.19;;;21.72;38.22
63088;BME280;49173;43.164;27.786;2023-05-07T08:42:23;100797.47;;;21.75;36.16
63088;BME280;49173;43.164;27.786;2023-05-07T08:44:51;100784.84;;;21.64;34.10
63088;BME280;49173;43.164;27.786;2023-05-07T08:47:22;100786.88;;;21.53;35.57
63088;BME280;49173;43.164;27.786;2023-05-07T08:49:48;100787.72;;;21.34;36.07
63088;BME280;49173;43.164;27.786;2023-05-07T08:52:15;100787.41;;;21.27;35.77
63088;BME280;49173;43.164;27.786;2023-05-07T08:54:42;100800.03;;;21.19;35.27
63088;BME280;49173;43.164;27.786;2023-05-07T08:57:08;100792.41;;;21.12;35.09
63088;BME280;49173;43.164;27.786;2023-05-07T08:59:34;100784.53;;;21.19;36.66
63088;BME280;49173;43.164;27.786;2023-05-07T09:02:00;100781.69;;;21.30;35.06
63088;BME280;49173;43.164;27.786;2023-05-07T09:04:25;100792.63;;;21.30;35.61
63088;BME280;49173;43.164;27.786;2023-05-07T09:06:51;100785.13;;;21.42;37.49
63088;BME280;49173;43.164;27.786;2023-05-07T09:09:17;100796.06;;;21.61;37.83
63088;BME280;49173;43.164;27.786;2023-05-07T09:11:46;100791.59;;;21.70;38.60
63088;BME280;49173;43.164;27.786;2023-05-07T09:14:11;100788.88;;;21.51;34.54
63088;BME280;49173;43.164;27.786;2023-05-07T09:16:37;100792.19;;;21.45;39.72
63088;BME280;49173;43.164;27.786;2023-05-07T09:19:04;100781.41;;;21.53;37.40
63088;BME280;49173;43.164;27.786;2023-05-07T09:21:29;100771.91;;;21.66;36.30
63088;BME280;49173;43.164;27.786;2023-05-07T09:23:55;100775.34;;;21.78;34.91
63088;BME280;49173;43.164;27.786;2023-05-07T09:26:22;100782.97;;;21.65;36.58
63088;BME280;49173;43.164;27.786;2023-05-07T09:28:47;100776.66;;;21.55;35.76
63088;BME280;49173;43.164;27.786;2023-05-07T09:31:13;100774.22;;;21.42;36.36
63088;BME280;49173;43.164;27.786;2023-05-07T09:33:39;100769.34;;;21.46;37.28
63088;BME280;49173;43.164;27.786;2023-05-07T09:36:07;100770.91;;;21.48;35.30
63088;BME280;49173;43.164;27.786;2023-05-07T09:38:34;100763.88;;;21.46;35.71
63088;BME280;49173;43.164;27.786;2023-05-07T09:41:11;100770.78;;;21.40;36.92
63088;BME280;49173;43.164;27.786;2023-05-07T09:43:39;100770.16;;;21.27;37.66
63088;BME280;49173;43.164;27.786;2023-05-07T09:46:13;100770.03;;;21.28;38.36
63088;BME280;49173;43.164;27.786;2023-05-07T09:48:43;100763.28;;;21.42;38.25
63088;BME280;49173;43.164;27.786;2023-05-07T09:51:51;100749.63;;;21.61;37.53
63088;BME280;49173;43.164;27.786;2023-05-07T09:54:16;100759.06;;;21.77;37.29
63088;BME280;49173;43.164;27.786;2023-05-07T09:56:44;100745.72;;;21.74;35.35
63088;BME280;49173;43.164;27.786;2023-05-07T09:59:13;100746.75;;;21.53;36.15
63088;BME280;49173;43.164;27.786;2023-05-07T10:01:41;100749.19;;;21.56;37.31
63088;BME280;49173;43.164;27.786;2023-05-07T10:04:07;100763.84;;;21.75;38.65
63088;BME280;49173;43.164;27.786;2023-05-07T10:06:37;100749.56;;;21.90;36.87
63088;BME280;49173;43.164;27.786;2023-05-07T10:09:04;100753.72;;;21.94;36.52
63088;BME280;49173;43.164;27.786;2023-05-07T10:11:34;100756.47;;;21.94;36.49
63088;BME280;49173;43.164;27.786;2023-05-07T10:14:04;100759.16;;;22.04;36.12
63088;BME280;49173;43.164;27.786;2023-05-07T10:16:34;100755.84;;;22.10;36.43
63088;BME280;49173;43.164;27.786;2023-05-07T10:19:05;100752.28;;;22.10;35.11
63088;BME280;49173;43.164;27.786;2023-05-07T10:21:36;100761.22;;;21.92;34.50
63088;BME280;49173;43.164;27.786;2023-05-07T10:24:05;100752.00;;;21.84;33.77
63088;BME280;49173;43.164;27.786;2023-05-07T10:26:42;100752.00;;;21.84;34.89
63088;BME280;49173;43.164;27.786;2023-05-07T10:29:57;100742.56;;;21.78;35.16
63088;BME280;49173;43.164;27.786;2023-05-07T10:34:54;100734.16;;;21.89;33.98
63088;BME280;49173;43.164;27.786;2023-05-07T10:37:22;100731.44;;;21.99;34.76
63088;BME280;49173;43.164;27.786;2023-05-07T10:39:49;100719.31;;;22.11;36.29
63088;BME280;49173;43.164;27.786;2023-05-07T10:42:15;100728.28;;;22.31;36.56
63088;BME280;49173;43.164;27.786;2023-05-07T10:44:41;100729.63;;;22.27;36.35
63088;BME280;49173;43.164;27.786;2023-05-07T10:52:18;100725.50;;;22.41;35.15
63088;BME280;49173;43.164;27.786;2023-05-07T10:54:45;100735.22;;;22.53;36.84
63088;BME280;49173;43.164;27.786;2023-05-07T10:57:33;100738.81;;;22.54;35.89
63088;BME280;49173;43.164;27.786;2023-05-07T11:00:40;100737.94;;;22.63;36.32
63088;BME280;49173;43.164;27.786;2023-05-07T11:03:06;100738.97;;;22.52;37.78
63088;BME280;49173;43.164;27.786;2023-05-07T11:05:33;100738.97;;;22.52;37.36
63088;BME280;49173;43.164;27.786;2023-05-07T11:08:03;100744.53;;;22.60;37.36
63088;BME280;49173;43.164;27.786;2023-05-07T11:13:17;100746.25;;;22.61;36.71
63088;BME280;49173;43.164;27.786;2023-05-07T11:18:11;100754.72;;;22.68;38.15
63088;BME280;49173;43.164;27.786;2023-05-07T11:26:09;100746.66;;;22.48;38.54
63088;BME280;49173;43.164;27.786;2023-05-07T11:28:40;100762.97;;;22.31;37.54
63088;BME280;49173;43.164;27.786;2023-05-07T11:31:10;100753.13;;;22.10;38.14
63088;BME280;49173;43.164;27.786;2023-05-07T11:33:46;100754.41;;;22.06;39.06
63088;BME280;49173;43.164;27.786;2023-05-07T11:36:13;100759.59;;;22.09;40.08
63088;BME280;49173;43.164;27.786;2023-05-07T11:38:39;100761.31;;;22.20;38.49
63088;BME280;49173;43.164;27.786;2023-05-07T11:41:07;100757.41;;;22.23;37.86
63088;BME280;49173;43.164;27.786;2023-05-07T11:43:54;100763.16;;;22.19;39.88
63088;BME280;49173;43.164;27.786;2023-05-07T11:46:21;100756.56;;;22.12;38.46
63088;BME280;49173;43.164;27.786;2023-05-07T11:48:48;100753.56;;;21.96;39.47
63088;BME280;49173;43.164;27.786;2023-05-07T11:51:19;100745.22;;;21.98;38.64
63088;BME280;49173;43.164;27.786;2023-05-07T11:53:48;100740.16;;;22.12;40.08
63088;BME280;49173;43.164;27.786;2023-05-07T11:56:19;100745.63;;;22.12;38.22
63088;BME280;49173;43.164;27.786;2023-05-07T11:58:48;100749.69;;;22.08;39.83
63088;BME280;49173;43.164;27.786;2023-05-07T12:01:19;100748.22;;;22.04;40.48
63088;BME280;49173;43.164;27.786;2023-05-07T12:03:45;100757.28;;;22.05;39.79
63088;BME280;49173;43.164;27.786;2023-05-07T12:06:15;100745.22;;;22.07;38.76
63088;BME280;49173;43.164;27.786;2023-05-07T12:08:49;100751.25;;;22.01;38.97
63088;BME280;49173;43.164;27.786;2023-05-07T12:11:21;100734.75;;;21.93;38.33
63088;BME280;49173;43.164;27.786;2023-05-07T12:13:53;100744.78;;;22.02;39.32
63088;BME280;49173;43.164;27.786;2023-05-07T12:16:23;100740.00;;;22.04;38.46
63088;BME280;49173;43.164;27.786;2023-05-07T12:18:51;100738.03;;;22.06;37.59
63088;BME280;49173;43.164;27.786;2023-05-07T12:21:18;100740.19;;;22.03;37.61
63088;BME280;49173;43.164;27.786;2023-05-07T12:23:46;100737.59;;;21.91;36.45
63088;BME280;49173;43.164;27.786;2023-05-07T12:26:15;100737.88;;;21.98;36.55
63088;BME280;49173;43.164;27.786;2023-05-07T12:28:42;100735.31;;;21.97;35.86
63088;BME280;49173;43.164;27.786;2023-05-07T12:31:13;100737.59;;;21.91;36.40
63088;BME280;49173;43.164;27.786;2023-05-07T12:33:41;100743.41;;;21.79;36.25
63088;BME280;49173;43.164;27.786;2023-05-07T12:36:08;100737.06;;;21.88;36.36
63088;BME280;49173;43.164;27.786;2023-05-07T12:38:36;100743.91;;;22.02;36.97
63088;BME280;49173;43.164;27.786;2023-05-07T12:41:06;100747.81;;;22.09;36.45
63088;BME280;49173;43.164;27.786;2023-05-07T12:43:35;100739.63;;;22.09;36.13
63088;BME280;49173;43.164;27.786;2023-05-07T12:46:08;100732.13;;;22.11;36.59
63088;BME280;49173;43.164;27.786;2023-05-07T12:48:44;100734.34;;;22.35;35.75
63088;BME280;49173;43.164;27.786;2023-05-07T12:51:13;100737.16;;;22.43;37.40
63088;BME280;49173;43.164;27.786;2023-05-07T12:53:45;100734.53;;;22.51;36.64
63088;BME280;49173;43.164;27.786;2023-05-07T12:56:11;100733.69;;;22.41;35.96
63088;BME280;49173;43.164;27.786;2023-05-07T12:58:37;100733.31;;;22.36;34.59
63088;BME280;49173;43.164;27.786;2023-05-07T13:01:07;100726.81;;;22.37;35.47